sensor_id;sensor_type;location;lat;lon;timestamp;temperature;humidity
9083;DHT22;4577;48.704;9.000;2023-12-29T00:01:30;9.30;99.90
9083;DHT22;4577;48.704;9.000;2023-12-29T00:03:56;9.10;99.90
9083;DHT22;4577;48.704;9.000;2023-12-29T00:06:22;9.30;99.90
9083;DHT22;4577;48.704;9.000;2023-12-29T00:08:48;9.30;99.90
9083;DHT22;4577;48.704;9.000;2023-12-29T00:11:20;9.40;99.90
9083;DHT22;4577;48.704;9.000;2023-12-29T00:13:46;9.40;99.90
9083;DHT22;4577;48.704;9.000;2023-12-29T00:16:12;9.30;99.90
9083;DHT22;4577;48.704;9.000;2023-12-29T00:18:38;9.30;99.90
9083;DHT22;4577;48.704;9.000;2023-12-29T00:21:04;9.20;99.90
9083;DHT22;4577;48.704;9.000;2023-12-29T00:23:30;8.90;99.90
9083;DHT22;4577;48.704;9.000;2023-12-29T00:25:56;9.10;99.90
9083;DHT22;4577;48.704;9.000;2023-12-29T00:28:22;9.10;99.90
9083;DHT22;4577;48.704;9.000;2023-12-29T00:30:47;9.10;99.90
9083;DHT22;4577;48.704;9.000;2023-12-29T00:33:13;9.20;99.90
9083;DHT22;4577;48.704;9.000;2023-12-29T00:35:38;9.30;99.90
9083;DHT22;4577;48.704;9.000;2023-12-29T00:38:05;9.20;99.90
9083;DHT22;4577;48.704;9.000;2023-12-29T00:40:34;9.30;99.90
9083;DHT22;4577;48.704;9.000;2023-12-29T00:43:03;9.20;99.90
9083;DHT22;4577;48.704;9.000;2023-12-29T00:45:28;9.20;99.90
9083;DHT22;4577;48.704;9.000;2023-12-29T00:48:02;8.90;99.90
9083;DHT22;4577;48.704;9.000;2023-12-29T00:50:28;9.20;99.90
9083;DHT22;4577;48.704;9.000;2023-12-29T00:52:54;8.90;99.90
9083;DHT22;4577;48.704;9.000;2023-12-29T00:55:19;9.20;99.90
9083;DHT22;4577;48.704;9.000;2023-12-29T00:57:45;9.20;99.90
9083;DHT22;4577;48.704;9.000;2023-12-29T01:00:12;9.20;99.90
9083;DHT22;4577;48.704;9.000;2023-12-29T01:02:38;9.20;99.90
9083;DHT22;4577;48.704;9.000;2023-12-29T01:05:04;9.20;99.90
9083;DHT22;4577;48.704;9.000;2023-12-29T01:07:30;9.10;99.90
9083;DHT22;4577;48.704;9.000;2023-12-29T01:09:56;9.10;99.90
9083;DHT22;4577;48.704;9.000;2023-12-29T01:12:22;9.50;99.90
9083;DHT22;4577;48.704;9.000;2023-12-29T01:14:47;9.10;99.90
9083;DHT22;4577;48.704;9.000;2023-12-29T01:17:13;9.20;99.90
9083;DHT22;4577;48.704;9.000;2023-12-29T01:19:39;8.70;99.90
9083;DHT22;4577;48.704;9.000;2023-12-29T01:24:30;9.20;99.90
9083;DHT22;4577;48.704;9.000;2023-12-29T01:26:56;9.10;99.90
9083;DHT22;4577;48.704;9.000;2023-12-29T01:29:22;9.10;99.90
9083;DHT22;4577;48.704;9.000;2023-12-29T01:31:47;9.20;99.90
9083;DHT22;4577;48.704;9.000;2023-12-29T01:34:13;9.10;99.90
9083;DHT22;4577;48.704;9.000;2023-12-29T01:36:39;9.20;99.90
9083;DHT22;4577;48.704;9.000;2023-12-29T01:41:31;9.30;99.90
9083;DHT22;4577;48.704;9.000;2023-12-29T01:46:24;9.30;99.90
9083;DHT22;4577;48.704;9.000;2023-12-29T01:48:49;9.50;99.90
9083;DHT22;4577;48.704;9.000;2023-12-29T01:51:15;9.20;99.90
9083;DHT22;4577;48.704;9.000;2023-12-29T01:56:09;9.50;99.90
9083;DHT22;4577;48.704;9.000;2023-12-29T01:58:35;9.10;99.90
9083;DHT22;4577;48.704;9.000;2023-12-29T02:01:02;9.50;99.90
9083;DHT22;4577;48.704;9.000;2023-12-29T02:03:28;9.10;99.90
9083;DHT22;4577;48.704;9.000;2023-12-29T02:05:57;9.60;99.90
9083;DHT22;4577;48.704;9.000;2023-12-29T02:08:24;9.20;99.90
9083;DHT22;4577;48.704;9.000;2023-12-29T02:10:49;9.20;99.90
9083;DHT22;4577;48.704;9.000;2023-12-29T02:13:15;9.00;99.90
9083;DHT22;4577;48.704;9.000;2023-12-29T02:15:41;9.20;99.90
9083;DHT22;4577;48.704;9.000;2023-12-29T02:18:09;9.40;99.90
9083;DHT22;4577;48.704;9.000;2023-12-29T02:20:37;9.30;99.90
9083;DHT22;4577;48.704;9.000;2023-12-29T02:23:03;9.30;99.90
9083;DHT22;4577;48.704;9.000;2023-12-29T02:25:29;9.20;99.90
9083;DHT22;4577;48.704;9.000;2023-12-29T02:30:32;9.30;99.90
9083;DHT22;4577;48.704;9.000;2023-12-29T02:33:03;9.20;99.90
9083;DHT22;4577;48.704;9.000;2023-12-29T02:35:34;9.40;99.90
9083;DHT22;4577;48.704;9.000;2023-12-29T02:38:01;9.00;99.90
9083;DHT22;4577;48.704;9.000;2023-12-29T02:40:27;9.90;99.90
9083;DHT22;4577;48.704;9.000;2023-12-29T02:42:53;9.20;99.90
9083;DHT22;4577;48.704;9.000;2023-12-29T02:45:18;9.30;99.90
9083;DHT22;4577;48.704;9.000;2023-12-29T02:47:44;9.00;99.90
9083;DHT22;4577;48.704;9.000;2023-12-29T02:50:10;9.10;99.90
9083;DHT22;4577;48.704;9.000;2023-12-29T02:52:36;9.30;99.90
9083;DHT22;4577;48.704;9.000;2023-12-29T02:55:02;9.10;99.90
9083;DHT22;4577;48.704;9.000;2023-12-29T02:57:28;8.60;99.90
9083;DHT22;4577;48.704;9.000;2023-12-29T02:59:55;8.90;99.90
9083;DHT22;4577;48.704;9.000;2023-12-29T03:02:21;9.00;99.90
9083;DHT22;4577;48.704;9.000;2023-12-29T03:04:47;9.00;99.90
9083;DHT22;4577;48.704;9.000;2023-12-29T03:07:13;9.00;99.90
9083;DHT22;4577;48.704;9.000;2023-12-29T03:09:38;9.00;99.90
9083;DHT22;4577;48.704;9.000;2023-12-29T03:12:04;8.80;99.90
9083;DHT22;4577;48.704;9.000;2023-12-29T03:14:30;8.90;99.90
9083;DHT22;4577;48.704;9.000;2023-12-29T03:16:56;9.30;99.90
9083;DHT22;4577;48.704;9.000;2023-12-29T03:19:22;9.10;99.90
9083;DHT22;4577;48.704;9.000;2023-12-29T03:21:48;8.80;99.90
9083;DHT22;4577;48.704;9.000;2023-12-29T03:24:14;9.00;99.90
9083;DHT22;4577;48.704;9.000;2023-12-29T03:26:39;9.20;99.90
9083;DHT22;4577;48.704;9.000;2023-12-29T03:29:05;8.80;99.90
9083;DHT22;4577;48.704;9.000;2023-12-29T03:31:31;9.00;99.90
9083;DHT22;4577;48.704;9.000;2023-12-29T03:33:56;9.00;99.90
9083;DHT22;4577;48.704;9.000;2023-12-29T03:36:22;8.80;99.90
9083;DHT22;4577;48.704;9.000;2023-12-29T03:42:09;9.20;99.90
9083;DHT22;4577;48.704;9.000;2023-12-29T03:44:35;8.90;99.90
9083;DHT22;4577;48.704;9.000;2023-12-29T03:47:01;8.90;99.90
9083;DHT22;4577;48.704;9.000;2023-12-29T03:49:27;9.00;99.90
9083;DHT22;4577;48.704;9.000;2023-12-29T03:51:53;8.80;99.90
9083;DHT22;4577;48.704;9.000;2023-12-29T03:54:18;8.80;99.90
9083;DHT22;4577;48.704;9.000;2023-12-29T03:56:46;8.80;99.90
9083;DHT22;4577;48.704;9.000;2023-12-29T03:59:12;8.70;99.90
9083;DHT22;4577;48.704;9.000;2023-12-29T04:01:38;8.80;99.90
9083;DHT22;4577;48.704;9.000;2023-12-29T04:04:04;8.80;99.90
9083;DHT22;4577;48.704;9.000;2023-12-29T04:06:29;8.80;99.90
9083;DHT22;4577;48.704;9.000;2023-12-29T04:08:55;8.60;99.90
9083;DHT22;4577;48.704;9.000;2023-12-29T04:13:47;9.00;99.90
9083;DHT22;4577;48.704;9.000;2023-12-29T04:16:13;9.00;99.90
9083;DHT22;4577;48.704;9.000;2023-12-29T04:18:39;8.90;99.90
9083;DHT22;4577;48.704;9.000;2023-12-29T04:21:05;8.90;99.90
9083;DHT22;4577;48.704;9.000;2023-12-29T04:23:31;8.80;99.90
9083;DHT22;4577;48.704;9.000;2023-12-29T04:25:57;9.00;99.90
9083;DHT22;4577;48.704;9.000;2023-12-29T04:28:22;8.70;99.90
9083;DHT22;4577;48.704;9.000;2023-12-29T04:30:48;8.80;99.90
9083;DHT22;4577;48.704;9.000;2023-12-29T04:33:14;8.90;99.90
9083;DHT22;4577;48.704;9.000;2023-12-29T04:35:39;8.90;99.90
9083;DHT22;4577;48.704;9.000;2023-12-29T04:38:05;8.80;99.90
9083;DHT22;4577;48.704;9.000;2023-12-29T04:40:32;8.90;99.90
9083;DHT22;4577;48.704;9.000;2023-12-29T04:42:57;8.80;99.90
9083;DHT22;4577;48.704;9.000;2023-12-29T04:45:23;8.90;99.90
9083;DHT22;4577;48.704;9.000;2023-12-29T04:47:49;8.90;99.90
9083;DHT22;4577;48.704;9.000;2023-12-29T04:50:14;8.90;99.90
9083;DHT22;4577;48.704;9.000;2023-12-29T04:52:40;8.70;99.90
9083;DHT22;4577;48.704;9.000;2023-12-29T04:55:06;8.70;99.90
9083;DHT22;4577;48.704;9.000;2023-12-29T04:57:32;8.80;99.90
9083;DHT22;4577;48.704;9.000;2023-12-29T04:59:57;8.70;99.90
9083;DHT22;4577;48.704;9.000;2023-12-29T05:02:23;9.20;99.90
9083;DHT22;4577;48.704;9.000;2023-12-29T05:07:15;8.60;99.90
9083;DHT22;4577;48.704;9.000;2023-12-29T05:09:40;9.10;99.90
9083;DHT22;4577;48.704;9.000;2023-12-29T05:12:07;8.90;99.90
9083;DHT22;4577;48.704;9.000;2023-12-29T05:14:32;8.80;99.90
9083;DHT22;4577;48.704;9.000;2023-12-29T05:16:58;9.10;99.90
9083;DHT22;4577;48.704;9.000;2023-12-29T05:19:24;8.80;99.90
9083;DHT22;4577;48.704;9.000;2023-12-29T05:21:50;8.90;99.90
9083;DHT22;4577;48.704;9.000;2023-12-29T05:24:17;8.90;99.90
9083;DHT22;4577;48.704;9.000;2023-12-29T05:26:43;8.90;99.90
9083;DHT22;4577;48.704;9.000;2023-12-29T05:29:09;8.90;99.90
9083;DHT22;4577;48.704;9.000;2023-12-29T05:31:34;8.90;99.90
9083;DHT22;4577;48.704;9.000;2023-12-29T05:34:00;8.90;99.90
9083;DHT22;4577;48.704;9.000;2023-12-29T05:36:26;9.00;99.90
9083;DHT22;4577;48.704;9.000;2023-12-29T05:38:51;8.90;99.90
9083;DHT22;4577;48.704;9.000;2023-12-29T05:41:19;8.70;99.90
9083;DHT22;4577;48.704;9.000;2023-12-29T05:43:44;8.90;99.90
9083;DHT22;4577;48.704;9.000;2023-12-29T05:46:11;8.80;99.90
9083;DHT22;4577;48.704;9.000;2023-12-29T05:48:37;9.20;99.90
9083;DHT22;4577;48.704;9.000;2023-12-29T05:51:10;9.00;99.90
9083;DHT22;4577;48.704;9.000;2023-12-29T05:53:39;9.00;99.90
9083;DHT22;4577;48.704;9.000;2023-12-29T05:56:05;8.90;99.90
9083;DHT22;4577;48.704;9.000;2023-12-29T05:58:31;9.00;99.90
9083;DHT22;4577;48.704;9.000;2023-12-29T06:00:57;9.00;99.90
9083;DHT22;4577;48.704;9.000;2023-12-29T06:03:24;9.20;99.90
9083;DHT22;4577;48.704;9.000;2023-12-29T06:05:50;9.10;99.90
9083;DHT22;4577;48.704;9.000;2023-12-29T06:08:16;9.00;99.90
9083;DHT22;4577;48.704;9.000;2023-12-29T06:10:41;9.20;99.90
9083;DHT22;4577;48.704;9.000;2023-12-29T06:15:33;9.00;99.90
9083;DHT22;4577;48.704;9.000;2023-12-29T06:18:00;9.00;99.90
9083;DHT22;4577;48.704;9.000;2023-12-29T06:20:25;9.00;99.90
9083;DHT22;4577;48.704;9.000;2023-12-29T06:25:17;8.90;99.90
9083;DHT22;4577;48.704;9.000;2023-12-29T06:27:44;9.00;99.90
9083;DHT22;4577;48.704;9.000;2023-12-29T06:30:10;9.10;99.90
9083;DHT22;4577;48.704;9.000;2023-12-29T06:32:38;9.00;99.90
9083;DHT22;4577;48.704;9.000;2023-12-29T06:35:05;9.00;99.90
9083;DHT22;4577;48.704;9.000;2023-12-29T06:37:31;9.00;99.90
9083;DHT22;4577;48.704;9.000;2023-12-29T06:39:58;9.30;99.90
9083;DHT22;4577;48.704;9.000;2023-12-29T06:42:23;9.10;99.90
9083;DHT22;4577;48.704;9.000;2023-12-29T06:44:49;9.00;99.90
9083;DHT22;4577;48.704;9.000;2023-12-29T06:49:41;9.00;99.90
9083;DHT22;4577;48.704;9.000;2023-12-29T06:52:07;9.70;99.90
9083;DHT22;4577;48.704;9.000;2023-12-29T06:54:33;8.90;99.90
9083;DHT22;4577;48.704;9.000;2023-12-29T06:56:59;9.10;99.90
9083;DHT22;4577;48.704;9.000;2023-12-29T06:59:25;8.50;99.90
9083;DHT22;4577;48.704;9.000;2023-12-29T07:01:51;9.10;99.90
9083;DHT22;4577;48.704;9.000;2023-12-29T07:04:17;9.10;99.90
9083;DHT22;4577;48.704;9.000;2023-12-29T07:06:43;9.50;99.90
9083;DHT22;4577;48.704;9.000;2023-12-29T07:09:08;9.00;99.90
9083;DHT22;4577;48.704;9.000;2023-12-29T07:11:35;9.30;99.90
9083;DHT22;4577;48.704;9.000;2023-12-29T07:14:01;9.10;99.90
9083;DHT22;4577;48.704;9.000;2023-12-29T07:18:53;8.90;99.90
9083;DHT22;4577;48.704;9.000;2023-12-29T07:21:19;9.00;99.90
9083;DHT22;4577;48.704;9.000;2023-12-29T07:23:45;9.20;99.90
9083;DHT22;4577;48.704;9.000;2023-12-29T07:28:37;9.10;99.90
9083;DHT22;4577;48.704;9.000;2023-12-29T07:31:04;9.20;99.90
9083;DHT22;4577;48.704;9.000;2023-12-29T07:33:30;9.10;99.90
9083;DHT22;4577;48.704;9.000;2023-12-29T07:35:56;9.30;99.90
9083;DHT22;4577;48.704;9.000;2023-12-29T07:38:22;8.60;99.90
9083;DHT22;4577;48.704;9.000;2023-12-29T07:40:48;9.00;99.90
9083;DHT22;4577;48.704;9.000;2023-12-29T07:45:40;8.70;99.90
9083;DHT22;4577;48.704;9.000;2023-12-29T07:48:06;9.40;99.90
9083;DHT22;4577;48.704;9.000;2023-12-29T07:52:58;8.90;99.90
9083;DHT22;4577;48.704;9.000;2023-12-29T07:55:28;9.00;99.90
9083;DHT22;4577;48.704;9.000;2023-12-29T07:57:54;9.00;99.90
9083;DHT22;4577;48.704;9.000;2023-12-29T08:02:47;8.80;99.90
9083;DHT22;4577;48.704;9.000;2023-12-29T08:05:13;9.20;99.90
9083;DHT22;4577;48.704;9.000;2023-12-29T08:07:41;9.00;99.90
9083;DHT22;4577;48.704;9.000;2023-12-29T08:10:07;9.50;99.90
9083;DHT22;4577;48.704;9.000;2023-12-29T08:12:33;9.20;99.90
9083;DHT22;4577;48.704;9.000;2023-12-29T08:15:00;9.10;99.90
9083;DHT22;4577;48.704;9.000;2023-12-29T08:17:26;9.20;99.90
9083;DHT22;4577;48.704;9.000;2023-12-29T08:22:19;9.10;99.90
9083;DHT22;4577;48.704;9.000;2023-12-29T08:24:45;8.70;99.90
9083;DHT22;4577;48.704;9.000;2023-12-29T08:27:12;9.20;99.90
9083;DHT22;4577;48.704;9.000;2023-12-29T08:29:38;9.10;99.90
9083;DHT22;4577;48.704;9.000;2023-12-29T08:32:04;9.20;99.90
9083;DHT22;4577;48.704;9.000;2023-12-29T08:34:30;9.20;99.90
9083;DHT22;4577;48.704;9.000;2023-12-29T08:39:22;9.20;99.90
9083;DHT22;4577;48.704;9.000;2023-12-29T08:41:48;9.10;99.90
9083;DHT22;4577;48.704;9.000;2023-12-29T08:44:17;9.50;99.90
9083;DHT22;4577;48.704;9.000;2023-12-29T08:46:43;9.20;99.90
9083;DHT22;4577;48.704;9.000;2023-12-29T08:49:09;9.60;99.90
9083;DHT22;4577;48.704;9.000;2023-12-29T08:51:34;9.30;99.90
9083;DHT22;4577;48.704;9.000;2023-12-29T08:54:00;9.40;99.90
9083;DHT22;4577;48.704;9.000;2023-12-29T08:56:26;9.20;99.90
9083;DHT22;4577;48.704;9.000;2023-12-29T08:58:51;8.90;99.90
9083;DHT22;4577;48.704;9.000;2023-12-29T09:01:18;9.50;99.90
9083;DHT22;4577;48.704;9.000;2023-12-29T09:03:44;9.40;99.90
9083;DHT22;4577;48.704;9.000;2023-12-29T09:08:36;9.20;99.90
9083;DHT22;4577;48.704;9.000;2023-12-29T09:13:28;11.30;99.90
9083;DHT22;4577;48.704;9.000;2023-12-29T09:15:55;8.90;99.90
9083;DHT22;4577;48.704;9.000;2023-12-29T09:18:20;9.20;99.90
9083;DHT22;4577;48.704;9.000;2023-12-29T09:23:13;9.50;99.90
9083;DHT22;4577;48.704;9.000;2023-12-29T09:25:39;9.40;99.90
9083;DHT22;4577;48.704;9.000;2023-12-29T09:28:05;9.70;99.90
9083;DHT22;4577;48.704;9.000;2023-12-29T09:30:30;9.60;99.90
9083;DHT22;4577;48.704;9.000;2023-12-29T09:32:56;9.40;99.90
9083;DHT22;4577;48.704;9.000;2023-12-29T09:35:22;9.70;99.90
9083;DHT22;4577;48.704;9.000;2023-12-29T09:42:43;9.70;99.90
9083;DHT22;4577;48.704;9.000;2023-12-29T09:45:11;9.60;99.90
9083;DHT22;4577;48.704;9.000;2023-12-29T09:47:40;9.60;99.90
9083;DHT22;4577;48.704;9.000;2023-12-29T09:50:10;9.50;99.90
9083;DHT22;4577;48.704;9.000;2023-12-29T09:52:38;9.70;99.90
9083;DHT22;4577;48.704;9.000;2023-12-29T09:55:07;9.60;99.90
9083;DHT22;4577;48.704;9.000;2023-12-29T09:57:36;9.60;99.90
9083;DHT22;4577;48.704;9.000;2023-12-29T10:00:02;9.70;99.90
9083;DHT22;4577;48.704;9.000;2023-12-29T10:02:28;9.50;99.90
9083;DHT22;4577;48.704;9.000;2023-12-29T10:04:55;9.70;99.90
9083;DHT22;4577;48.704;9.000;2023-12-29T10:07:25;9.70;99.90
9083;DHT22;4577;48.704;9.000;2023-12-29T10:09:56;9.80;99.90
9083;DHT22;4577;48.704;9.000;2023-12-29T10:12:26;9.90;99.90
9083;DHT22;4577;48.704;9.000;2023-12-29T10:15:15;9.80;99.90
9083;DHT22;4577;48.704;9.000;2023-12-29T10:20:36;9.90;99.90
9083;DHT22;4577;48.704;9.000;2023-12-29T10:23:11;9.80;99.90
9083;DHT22;4577;48.704;9.000;2023-12-29T10:25:40;9.90;99.90
9083;DHT22;4577;48.704;9.000;2023-12-29T10:28:06;10.20;99.90
9083;DHT22;4577;48.704;9.000;2023-12-29T10:30:33;10.00;99.90
9083;DHT22;4577;48.704;9.000;2023-12-29T10:32:58;10.10;99.90
9083;DHT22;4577;48.704;9.000;2023-12-29T10:35:29;10.10;99.90
9083;DHT22;4577;48.704;9.000;2023-12-29T10:38:08;10.20;99.90
9083;DHT22;4577;48.704;9.000;2023-12-29T10:40:35;9.90;99.90
9083;DHT22;4577;48.704;9.000;2023-12-29T10:43:00;10.20;99.90
9083;DHT22;4577;48.704;9.000;2023-12-29T10:45:32;10.00;99.90
9083;DHT22;4577;48.704;9.000;2023-12-29T10:48:00;10.10;99.90
9083;DHT22;4577;48.704;9.000;2023-12-29T10:50:27;10.50;99.90
9083;DHT22;4577;48.704;9.000;2023-12-29T10:53:14;10.50;99.90
9083;DHT22;4577;48.704;9.000;2023-12-29T10:55:42;10.70;99.90
9083;DHT22;4577;48.704;9.000;2023-12-29T10:58:08;10.40;99.90
9083;DHT22;4577;48.704;9.000;2023-12-29T11:00:34;10.50;99.90
9083;DHT22;4577;48.704;9.000;2023-12-29T11:03:00;10.70;99.90
9083;DHT22;4577;48.704;9.000;2023-12-29T11:05:26;10.50;99.90
9083;DHT22;4577;48.704;9.000;2023-12-29T11:07:53;10.50;99.90
9083;DHT22;4577;48.704;9.000;2023-12-29T11:10:21;10.60;99.90
9083;DHT22;4577;48.704;9.000;2023-12-29T11:12:48;10.50;99.90
9083;DHT22;4577;48.704;9.000;2023-12-29T11:15:15;10.70;99.90
9083;DHT22;4577;48.704;9.000;2023-12-29T11:17:42;10.60;99.90
9083;DHT22;4577;48.704;9.000;2023-12-29T11:20:16;10.70;99.90
9083;DHT22;4577;48.704;9.000;2023-12-29T11:22:42;10.50;99.90
9083;DHT22;4577;48.704;9.000;2023-12-29T11:25:09;10.70;99.90
9083;DHT22;4577;48.704;9.000;2023-12-29T11:27:35;11.40;99.90
9083;DHT22;4577;48.704;9.000;2023-12-29T11:30:03;10.80;99.90
9083;DHT22;4577;48.704;9.000;2023-12-29T11:32:36;10.50;99.90
9083;DHT22;4577;48.704;9.000;2023-12-29T11:35:49;10.70;99.90
9083;DHT22;4577;48.704;9.000;2023-12-29T11:38:32;10.70;99.90
9083;DHT22;4577;48.704;9.000;2023-12-29T11:41:17;11.10;99.90
9083;DHT22;4577;48.704;9.000;2023-12-29T11:43:44;11.20;99.90
9083;DHT22;4577;48.704;9.000;2023-12-29T11:46:37;11.00;99.90
9083;DHT22;4577;48.704;9.000;2023-12-29T11:49:04;11.10;99.90
9083;DHT22;4577;48.704;9.000;2023-12-29T11:51:46;11.10;99.90
9083;DHT22;4577;48.704;9.000;2023-12-29T11:54:26;10.90;99.90
9083;DHT22;4577;48.704;9.000;2023-12-29T11:56:53;11.00;99.90
9083;DHT22;4577;48.704;9.000;2023-12-29T11:59:21;10.90;99.90
9083;DHT22;4577;48.704;9.000;2023-12-29T12:01:55;11.00;99.90
9083;DHT22;4577;48.704;9.000;2023-12-29T12:07:16;11.10;99.90
9083;DHT22;4577;48.704;9.000;2023-12-29T12:09:42;11.10;99.90
9083;DHT22;4577;48.704;9.000;2023-12-29T12:12:09;11.10;99.90
9083;DHT22;4577;48.704;9.000;2023-12-29T12:17:35;11.20;99.90
9083;DHT22;4577;48.704;9.000;2023-12-29T12:20:04;11.80;99.90
9083;DHT22;4577;48.704;9.000;2023-12-29T12:22:32;11.50;99.90
9083;DHT22;4577;48.704;9.000;2023-12-29T12:24:59;11.50;99.90
9083;DHT22;4577;48.704;9.000;2023-12-29T12:27:26;11.30;99.50
9083;DHT22;4577;48.704;9.000;2023-12-29T12:29:56;11.30;99.90
9083;DHT22;4577;48.704;9.000;2023-12-29T12:32:25;11.40;99.90
9083;DHT22;4577;48.704;9.000;2023-12-29T12:34:51;11.40;99.90
9083;DHT22;4577;48.704;9.000;2023-12-29T12:37:27;11.40;99.90
9083;DHT22;4577;48.704;9.000;2023-12-29T12:42:20;11.20;99.90
9083;DHT22;4577;48.704;9.000;2023-12-29T12:47:33;11.30;99.90
9083;DHT22;4577;48.704;9.000;2023-12-29T12:50:04;11.50;99.90
9083;DHT22;4577;48.704;9.000;2023-12-29T12:52:32;11.60;99.40
9083;DHT22;4577;48.704;9.000;2023-12-29T12:57:24;11.80;99.00
9083;DHT22;4577;48.704;9.000;2023-12-29T12:59:50;11.60;98.90
9083;DHT22;4577;48.704;9.000;2023-12-29T13:02:18;11.60;98.30
9083;DHT22;4577;48.704;9.000;2023-12-29T13:04:45;11.80;99.90
9083;DHT22;4577;48.704;9.000;2023-12-29T13:07:15;11.60;97.70
9083;DHT22;4577;48.704;9.000;2023-12-29T13:09:41;11.80;98.50
9083;DHT22;4577;48.704;9.000;2023-12-29T13:12:11;11.60;98.40
9083;DHT22;4577;48.704;9.000;2023-12-29T13:14:37;11.70;97.10
9083;DHT22;4577;48.704;9.000;2023-12-29T13:17:10;11.50;97.10
9083;DHT22;4577;48.704;9.000;2023-12-29T13:19:39;11.60;96.50
9083;DHT22;4577;48.704;9.000;2023-12-29T13:22:07;11.80;96.40
9083;DHT22;4577;48.704;9.000;2023-12-29T13:24:34;11.40;95.70
9083;DHT22;4577;48.704;9.000;2023-12-29T13:27:05;11.50;95.80
9083;DHT22;4577;48.704;9.000;2023-12-29T13:29:34;11.40;95.90
9083;DHT22;4577;48.704;9.000;2023-12-29T13:32:06;11.40;97.40
9083;DHT22;4577;48.704;9.000;2023-12-29T13:37:36;11.30;95.40
9083;DHT22;4577;48.704;9.000;2023-12-29T13:43:08;11.20;95.60
9083;DHT22;4577;48.704;9.000;2023-12-29T13:45:40;11.20;95.20
9083;DHT22;4577;48.704;9.000;2023-12-29T13:48:07;11.60;97.20
9083;DHT22;4577;48.704;9.000;2023-12-29T13:50:34;11.40;94.90
9083;DHT22;4577;48.704;9.000;2023-12-29T13:55:26;11.50;94.80
9083;DHT22;4577;48.704;9.000;2023-12-29T14:01:16;10.90;95.70
9083;DHT22;4577;48.704;9.000;2023-12-29T14:03:55;11.40;94.50
9083;DHT22;4577;48.704;9.000;2023-12-29T14:06:29;11.10;95.60
9083;DHT22;4577;48.704;9.000;2023-12-29T14:08:57;11.30;93.90
9083;DHT22;4577;48.704;9.000;2023-12-29T14:11:23;11.50;95.70
9083;DHT22;4577;48.704;9.000;2023-12-29T14:13:50;11.50;94.00
9083;DHT22;4577;48.704;9.000;2023-12-29T14:24:11;11.60;94.60
9083;DHT22;4577;48.704;9.000;2023-12-29T14:26:38;11.40;95.20
9083;DHT22;4577;48.704;9.000;2023-12-29T14:29:09;11.50;94.20
9083;DHT22;4577;48.704;9.000;2023-12-29T14:31:40;11.50;94.00
9083;DHT22;4577;48.704;9.000;2023-12-29T14:34:07;11.70;94.90
9083;DHT22;4577;48.704;9.000;2023-12-29T14:36:34;11.60;94.00
9083;DHT22;4577;48.704;9.000;2023-12-29T14:39:01;11.60;94.30
9083;DHT22;4577;48.704;9.000;2023-12-29T14:41:27;11.30;94.30
9083;DHT22;4577;48.704;9.000;2023-12-29T14:43:53;11.30;94.50
9083;DHT22;4577;48.704;9.000;2023-12-29T14:46:19;11.30;94.50
9083;DHT22;4577;48.704;9.000;2023-12-29T14:48:45;11.10;94.00
9083;DHT22;4577;48.704;9.000;2023-12-29T14:51:17;10.30;91.70
9083;DHT22;4577;48.704;9.000;2023-12-29T14:53:47;11.10;92.40
9083;DHT22;4577;48.704;9.000;2023-12-29T15:01:07;11.00;92.30
9083;DHT22;4577;48.704;9.000;2023-12-29T15:03:33;11.00;92.40
9083;DHT22;4577;48.704;9.000;2023-12-29T15:06:31;10.90;92.30
9083;DHT22;4577;48.704;9.000;2023-12-29T15:16:02;11.00;92.70
9083;DHT22;4577;48.704;9.000;2023-12-29T15:35:49;10.60;91.80
9083;DHT22;4577;48.704;9.000;2023-12-29T15:38:28;10.70;91.90
9083;DHT22;4577;48.704;9.000;2023-12-29T15:43:21;10.90;92.00
9083;DHT22;4577;48.704;9.000;2023-12-29T16:34:35;10.20;90.40
9083;DHT22;4577;48.704;9.000;2023-12-29T16:37:01;10.10;90.30
9083;DHT22;4577;48.704;9.000;2023-12-29T16:39:28;10.10;90.50
9083;DHT22;4577;48.704;9.000;2023-12-29T16:41:56;10.00;90.40
9083;DHT22;4577;48.704;9.000;2023-12-29T16:44:22;10.10;91.60
9083;DHT22;4577;48.704;9.000;2023-12-29T16:46:48;10.10;90.80
9083;DHT22;4577;48.704;9.000;2023-12-29T16:49:14;10.60;91.10
9083;DHT22;4577;48.704;9.000;2023-12-29T16:51:39;9.80;91.70
9083;DHT22;4577;48.704;9.000;2023-12-29T16:56:32;9.60;93.10
9083;DHT22;4577;48.704;9.000;2023-12-29T17:01:26;9.80;91.90
9083;DHT22;4577;48.704;9.000;2023-12-29T17:03:52;9.50;91.70
9083;DHT22;4577;48.704;9.000;2023-12-29T17:06:18;9.70;91.90
9083;DHT22;4577;48.704;9.000;2023-12-29T17:11:10;9.50;92.10
9083;DHT22;4577;48.704;9.000;2023-12-29T17:13:36;9.50;93.80
9083;DHT22;4577;48.704;9.000;2023-12-29T17:16:02;9.60;92.50
9083;DHT22;4577;48.704;9.000;2023-12-29T17:25:49;9.40;93.00
9083;DHT22;4577;48.704;9.000;2023-12-29T17:28:16;9.70;93.60
9083;DHT22;4577;48.704;9.000;2023-12-29T17:30:42;9.40;93.90
9083;DHT22;4577;48.704;9.000;2023-12-29T17:33:07;9.40;94.10
9083;DHT22;4577;48.704;9.000;2023-12-29T17:35:33;9.40;93.50
9083;DHT22;4577;48.704;9.000;2023-12-29T17:40:24;9.30;93.70
9083;DHT22;4577;48.704;9.000;2023-12-29T17:42:50;9.30;94.60
9083;DHT22;4577;48.704;9.000;2023-12-29T17:47:42;8.90;95.50
9083;DHT22;4577;48.704;9.000;2023-12-29T17:50:09;8.60;95.90
9083;DHT22;4577;48.704;9.000;2023-12-29T17:52:36;8.10;94.70
9083;DHT22;4577;48.704;9.000;2023-12-29T17:55:04;8.70;94.80
9083;DHT22;4577;48.704;9.000;2023-12-29T17:57:30;8.60;95.20
9083;DHT22;4577;48.704;9.000;2023-12-29T17:59:56;8.60;95.20
9083;DHT22;4577;48.704;9.000;2023-12-29T18:04:52;8.50;95.30
9083;DHT22;4577;48.704;9.000;2023-12-29T18:14:40;8.50;95.40
9083;DHT22;4577;48.704;9.000;2023-12-29T18:19:40;8.30;96.40
9083;DHT22;4577;48.704;9.000;2023-12-29T19:06:04;8.70;97.30
9083;DHT22;4577;48.704;9.000;2023-12-29T19:08:32;8.60;97.20
9083;DHT22;4577;48.704;9.000;2023-12-29T19:13:23;8.80;98.00
9083;DHT22;4577;48.704;9.000;2023-12-29T19:18:21;8.60;98.30
9083;DHT22;4577;48.704;9.000;2023-12-29T19:55:01;9.10;93.40
9083;DHT22;4577;48.704;9.000;2023-12-29T20:04:49;9.70;92.80
9083;DHT22;4577;48.704;9.000;2023-12-29T20:12:09;9.20;92.60
9083;DHT22;4577;48.704;9.000;2023-12-29T20:14:34;9.20;94.20
9083;DHT22;4577;48.704;9.000;2023-12-29T20:17:00;9.60;94.60
9083;DHT22;4577;48.704;9.000;2023-12-29T20:19:26;9.30;92.70
9083;DHT22;4577;48.704;9.000;2023-12-29T20:21:52;9.10;94.30
9083;DHT22;4577;48.704;9.000;2023-12-29T20:29:11;9.10;94.50
9083;DHT22;4577;48.704;9.000;2023-12-29T20:56:09;8.80;95.10
9083;DHT22;4577;48.704;9.000;2023-12-29T20:58:36;8.80;95.00
9083;DHT22;4577;48.704;9.000;2023-12-29T21:03:29;8.70;95.10
9083;DHT22;4577;48.704;9.000;2023-12-29T21:10:46;8.70;94.50
9083;DHT22;4577;48.704;9.000;2023-12-29T21:13:15;8.80;94.50
9083;DHT22;4577;48.704;9.000;2023-12-29T21:23:00;8.80;93.90
9083;DHT22;4577;48.704;9.000;2023-12-29T21:30:19;8.30;93.90
9083;DHT22;4577;48.704;9.000;2023-12-29T21:37:42;8.60;94.80
9083;DHT22;4577;48.704;9.000;2023-12-29T21:45:04;8.60;96.50
9083;DHT22;4577;48.704;9.000;2023-12-29T21:47:30;8.50;95.20
9083;DHT22;4577;48.704;9.000;2023-12-29T21:59:40;8.70;95.60
9083;DHT22;4577;48.704;9.000;2023-12-29T22:02:09;8.70;96.00
9083;DHT22;4577;48.704;9.000;2023-12-29T22:04:35;8.60;96.00
9083;DHT22;4577;48.704;9.000;2023-12-29T22:07:01;8.50;96.10
9083;DHT22;4577;48.704;9.000;2023-12-29T22:09:26;8.30;96.50
9083;DHT22;4577;48.704;9.000;2023-12-29T22:11:52;8.50;97.80
9083;DHT22;4577;48.704;9.000;2023-12-29T22:14:18;8.30;97.60
9083;DHT22;4577;48.704;9.000;2023-12-29T22:16:43;9.20;97.90
9083;DHT22;4577;48.704;9.000;2023-12-29T22:21:36;8.50;97.30
9083;DHT22;4577;48.704;9.000;2023-12-29T22:24:03;8.40;97.40
9083;DHT22;4577;48.704;9.000;2023-12-29T22:26:29;8.50;97.70